sensor_id;sensor_type;location;lat;lon;timestamp;temperature;humidity
32753;DHT22;19121;52.428;10.816;2023-07-09T00:00:03;26.00;45.50
32753;DHT22;19121;52.428;10.816;2023-07-09T00:02:29;26.00;45.50
32753;DHT22;19121;52.428;10.816;2023-07-09T00:04:55;26.00;45.50
32753;DHT22;19121;52.428;10.816;2023-07-09T00:07:30;26.00;45.50
32753;DHT22;19121;52.428;10.816;2023-07-09T00:09:56;26.00;45.40
32753;DHT22;19121;52.428;10.816;2023-07-09T00:12:22;26.00;45.40
32753;DHT22;19121;52.428;10.816;2023-07-09T00:14:47;26.00;45.50
32753;DHT22;19121;52.428;10.816;2023-07-09T00:17:29;26.00;45.40
32753;DHT22;19121;52.428;10.816;2023-07-09T00:19:56;26.00;45.50
32753;DHT22;19121;52.428;10.816;2023-07-09T00:22:21;26.00;45.50
32753;DHT22;19121;52.428;10.816;2023-07-09T00:24:49;26.00;45.50
32753;DHT22;19121;52.428;10.816;2023-07-09T00:27:19;25.90;45.50
32753;DHT22;19121;52.428;10.816;2023-07-09T00:29:46;26.00;45.50
32753;DHT22;19121;52.428;10.816;2023-07-09T00:32:12;25.90;45.50
32753;DHT22;19121;52.428;10.816;2023-07-09T00:34:40;25.90;45.50
32753;DHT22;19121;52.428;10.816;2023-07-09T00:37:11;25.90;45.50
32753;DHT22;19121;52.428;10.816;2023-07-09T00:39:38;25.90;45.50
32753;DHT22;19121;52.428;10.816;2023-07-09T00:42:06;25.90;45.50
32753;DHT22;19121;52.428;10.816;2023-07-09T00:44:32;25.90;45.50
32753;DHT22;19121;52.428;10.816;2023-07-09T00:49:30;25.90;45.60
32753;DHT22;19121;52.428;10.816;2023-07-09T00:51:56;25.90;45.60
32753;DHT22;19121;52.428;10.816;2023-07-09T00:54:28;26.00;45.60
32753;DHT22;19121;52.428;10.816;2023-07-09T00:56:57;25.90;45.50
32753;DHT22;19121;52.428;10.816;2023-07-09T00:59:24;25.90;45.60
32753;DHT22;19121;52.428;10.816;2023-07-09T01:01:50;25.90;45.60
32753;DHT22;19121;52.428;10.816;2023-07-09T01:04:17;25.80;45.60
32753;DHT22;19121;52.428;10.816;2023-07-09T01:06:45;25.90;45.70
32753;DHT22;19121;52.428;10.816;2023-07-09T01:09:12;25.80;45.60
32753;DHT22;19121;52.428;10.816;2023-07-09T01:11:37;25.90;45.60
32753;DHT22;19121;52.428;10.816;2023-07-09T01:14:04;25.80;45.50
32753;DHT22;19121;52.428;10.816;2023-07-09T01:16:32;25.90;45.60
32753;DHT22;19121;52.428;10.816;2023-07-09T01:18:58;25.80;45.50
32753;DHT22;19121;52.428;10.816;2023-07-09T01:21:25;25.80;45.50
32753;DHT22;19121;52.428;10.816;2023-07-09T01:23:52;25.80;45.50
32753;DHT22;19121;52.428;10.816;2023-07-09T01:26:22;25.80;45.60
32753;DHT22;19121;52.428;10.816;2023-07-09T01:28:50;25.80;45.60
32753;DHT22;19121;52.428;10.816;2023-07-09T01:31:16;25.80;45.60
32753;DHT22;19121;52.428;10.816;2023-07-09T01:33:44;25.80;45.70
32753;DHT22;19121;52.428;10.816;2023-07-09T01:36:14;25.80;45.60
32753;DHT22;19121;52.428;10.816;2023-07-09T01:38:40;25.80;45.60
32753;DHT22;19121;52.428;10.816;2023-07-09T01:41:06;25.80;45.70
32753;DHT22;19121;52.428;10.816;2023-07-09T01:43:32;25.80;46.20
32753;DHT22;19121;52.428;10.816;2023-07-09T01:45:57;25.70;45.60
32753;DHT22;19121;52.428;10.816;2023-07-09T01:48:25;25.80;45.70
32753;DHT22;19121;52.428;10.816;2023-07-09T01:50:50;25.70;45.60
32753;DHT22;19121;52.428;10.816;2023-07-09T01:53:17;25.70;45.60
32753;DHT22;19121;52.428;10.816;2023-07-09T01:55:43;25.80;45.70
32753;DHT22;19121;52.428;10.816;2023-07-09T01:58:09;25.70;45.60
32753;DHT22;19121;52.428;10.816;2023-07-09T02:00:36;25.80;45.70
32753;DHT22;19121;52.428;10.816;2023-07-09T02:03:02;25.70;45.70
32753;DHT22;19121;52.428;10.816;2023-07-09T02:05:29;25.70;45.70
32753;DHT22;19121;52.428;10.816;2023-07-09T02:07:55;25.70;45.70
32753;DHT22;19121;52.428;10.816;2023-07-09T02:10:20;25.70;45.70
32753;DHT22;19121;52.428;10.816;2023-07-09T02:12:46;25.70;45.70
32753;DHT22;19121;52.428;10.816;2023-07-09T02:15:12;25.70;45.80
32753;DHT22;19121;52.428;10.816;2023-07-09T02:17:38;25.70;45.80
32753;DHT22;19121;52.428;10.816;2023-07-09T02:20:03;25.70;45.80
32753;DHT22;19121;52.428;10.816;2023-07-09T02:22:30;25.60;45.70
32753;DHT22;19121;52.428;10.816;2023-07-09T02:24:56;25.60;45.70
32753;DHT22;19121;52.428;10.816;2023-07-09T02:27:21;25.60;45.80
32753;DHT22;19121;52.428;10.816;2023-07-09T02:29:49;25.60;45.80
32753;DHT22;19121;52.428;10.816;2023-07-09T02:32:19;25.60;45.80
32753;DHT22;19121;52.428;10.816;2023-07-09T02:34:45;25.60;45.90
32753;DHT22;19121;52.428;10.816;2023-07-09T02:37:15;25.60;45.90
32753;DHT22;19121;52.428;10.816;2023-07-09T02:39:41;25.60;45.90
32753;DHT22;19121;52.428;10.816;2023-07-09T02:42:08;25.60;45.90
32753;DHT22;19121;52.428;10.816;2023-07-09T02:44:34;25.50;45.90
32753;DHT22;19121;52.428;10.816;2023-07-09T02:46:59;25.60;46.00
32753;DHT22;19121;52.428;10.816;2023-07-09T02:49:24;25.60;46.00
32753;DHT22;19121;52.428;10.816;2023-07-09T02:51:50;25.50;45.90
32753;DHT22;19121;52.428;10.816;2023-07-09T02:54:15;25.50;46.00
32753;DHT22;19121;52.428;10.816;2023-07-09T02:56:41;25.60;46.00
32753;DHT22;19121;52.428;10.816;2023-07-09T02:59:06;25.50;46.00
32753;DHT22;19121;52.428;10.816;2023-07-09T03:01:32;25.50;46.00
32753;DHT22;19121;52.428;10.816;2023-07-09T03:03:59;25.50;46.00
32753;DHT22;19121;52.428;10.816;2023-07-09T03:06:27;25.50;46.00
32753;DHT22;19121;52.428;10.816;2023-07-09T03:08:52;25.50;46.00
32753;DHT22;19121;52.428;10.816;2023-07-09T03:11:18;25.50;46.00
32753;DHT22;19121;52.428;10.816;2023-07-09T03:13:44;25.50;46.10
32753;DHT22;19121;52.428;10.816;2023-07-09T03:16:10;25.40;46.00
32753;DHT22;19121;52.428;10.816;2023-07-09T03:18:35;25.50;46.00
32753;DHT22;19121;52.428;10.816;2023-07-09T03:21:00;25.40;46.00
32753;DHT22;19121;52.428;10.816;2023-07-09T03:23:26;25.40;46.00
32753;DHT22;19121;52.428;10.816;2023-07-09T03:25:52;25.40;46.00
32753;DHT22;19121;52.428;10.816;2023-07-09T03:28:17;25.40;46.00
32753;DHT22;19121;52.428;10.816;2023-07-09T03:30:43;25.40;46.00
32753;DHT22;19121;52.428;10.816;2023-07-09T03:33:09;25.40;46.10
32753;DHT22;19121;52.428;10.816;2023-07-09T03:35:35;25.40;46.00
32753;DHT22;19121;52.428;10.816;2023-07-09T03:38:01;25.40;46.10
32753;DHT22;19121;52.428;10.816;2023-07-09T03:40:27;25.40;46.00
32753;DHT22;19121;52.428;10.816;2023-07-09T03:42:52;25.40;46.00
32753;DHT22;19121;52.428;10.816;2023-07-09T03:45:18;25.40;46.10
32753;DHT22;19121;52.428;10.816;2023-07-09T03:47:43;25.40;46.10
32753;DHT22;19121;52.428;10.816;2023-07-09T03:50:09;25.40;46.10
32753;DHT22;19121;52.428;10.816;2023-07-09T03:52:35;25.40;46.10
32753;DHT22;19121;52.428;10.816;2023-07-09T03:55:01;25.40;46.10
32753;DHT22;19121;52.428;10.816;2023-07-09T03:57:29;25.40;46.10
32753;DHT22;19121;52.428;10.816;2023-07-09T03:59:55;25.40;46.10
32753;DHT22;19121;52.428;10.816;2023-07-09T04:02:20;25.40;46.10
32753;DHT22;19121;52.428;10.816;2023-07-09T04:04:45;25.40;46.10
32753;DHT22;19121;52.428;10.816;2023-07-09T04:07:11;25.40;46.10
32753;DHT22;19121;52.428;10.816;2023-07-09T04:09:37;25.30;46.10
32753;DHT22;19121;52.428;10.816;2023-07-09T04:12:02;25.30;46.10
32753;DHT22;19121;52.428;10.816;2023-07-09T04:14:28;25.40;46.10
32753;DHT22;19121;52.428;10.816;2023-07-09T04:16:54;25.40;46.10
32753;DHT22;19121;52.428;10.816;2023-07-09T04:19:20;25.30;46.00
32753;DHT22;19121;52.428;10.816;2023-07-09T04:21:45;25.40;46.10
32753;DHT22;19121;52.428;10.816;2023-07-09T04:24:11;25.40;46.10
32753;DHT22;19121;52.428;10.816;2023-07-09T04:26:36;25.40;46.10
32753;DHT22;19121;52.428;10.816;2023-07-09T04:29:04;25.40;46.00
32753;DHT22;19121;52.428;10.816;2023-07-09T04:31:30;25.40;46.00
32753;DHT22;19121;52.428;10.816;2023-07-09T04:33:56;25.40;46.00
32753;DHT22;19121;52.428;10.816;2023-07-09T04:36:21;25.40;46.00
32753;DHT22;19121;52.428;10.816;2023-07-09T04:38:47;25.40;46.00
32753;DHT22;19121;52.428;10.816;2023-07-09T04:41:12;25.40;46.00
32753;DHT22;19121;52.428;10.816;2023-07-09T04:43:37;25.40;45.90
32753;DHT22;19121;52.428;10.816;2023-07-09T04:46:03;25.40;46.00
32753;DHT22;19121;52.428;10.816;2023-07-09T04:48:28;25.40;45.90
32753;DHT22;19121;52.428;10.816;2023-07-09T04:50:54;25.40;45.90
32753;DHT22;19121;52.428;10.816;2023-07-09T04:53:20;25.40;45.90
32753;DHT22;19121;52.428;10.816;2023-07-09T04:55:45;25.40;46.50
32753;DHT22;19121;52.428;10.816;2023-07-09T04:58:11;25.40;45.80
32753;DHT22;19121;52.428;10.816;2023-07-09T05:00:36;25.50;45.90
32753;DHT22;19121;52.428;10.816;2023-07-09T05:03:01;25.50;45.90
32753;DHT22;19121;52.428;10.816;2023-07-09T05:05:27;25.50;45.90
32753;DHT22;19121;52.428;10.816;2023-07-09T05:07:52;25.50;45.90
32753;DHT22;19121;52.428;10.816;2023-07-09T05:10:18;25.50;45.80
32753;DHT22;19121;52.428;10.816;2023-07-09T05:12:50;25.50;45.80
32753;DHT22;19121;52.428;10.816;2023-07-09T05:15:16;25.60;45.80
32753;DHT22;19121;52.428;10.816;2023-07-09T05:17:41;25.50;45.70
32753;DHT22;19121;52.428;10.816;2023-07-09T05:20:07;25.60;45.80
32753;DHT22;19121;52.428;10.816;2023-07-09T05:22:32;25.60;45.70
32753;DHT22;19121;52.428;10.816;2023-07-09T05:24:58;25.60;45.70
32753;DHT22;19121;52.428;10.816;2023-07-09T05:27:23;25.70;45.70
32753;DHT22;19121;52.428;10.816;2023-07-09T05:29:49;25.70;45.70
32753;DHT22;19121;52.428;10.816;2023-07-09T05:32:14;25.70;46.20
32753;DHT22;19121;52.428;10.816;2023-07-09T05:34:40;25.80;45.60
32753;DHT22;19121;52.428;10.816;2023-07-09T05:37:05;25.80;45.50
32753;DHT22;19121;52.428;10.816;2023-07-09T05:39:30;25.80;45.50
32753;DHT22;19121;52.428;10.816;2023-07-09T05:41:56;25.80;45.50
32753;DHT22;19121;52.428;10.816;2023-07-09T05:44:21;25.80;45.40
32753;DHT22;19121;52.428;10.816;2023-07-09T05:46:47;25.80;45.30
32753;DHT22;19121;52.428;10.816;2023-07-09T05:49:12;25.90;45.40
32753;DHT22;19121;52.428;10.816;2023-07-09T05:51:38;25.90;45.40
32753;DHT22;19121;52.428;10.816;2023-07-09T05:54:03;25.90;45.30
32753;DHT22;19121;52.428;10.816;2023-07-09T05:56:28;26.00;45.30
32753;DHT22;19121;52.428;10.816;2023-07-09T05:58:54;26.00;45.30
32753;DHT22;19121;52.428;10.816;2023-07-09T06:01:21;26.00;45.20
32753;DHT22;19121;52.428;10.816;2023-07-09T06:03:47;26.00;45.20
32753;DHT22;19121;52.428;10.816;2023-07-09T06:06:13;26.00;45.10
32753;DHT22;19121;52.428;10.816;2023-07-09T06:08:38;26.10;45.10
32753;DHT22;19121;52.428;10.816;2023-07-09T06:11:04;26.10;45.10
32753;DHT22;19121;52.428;10.816;2023-07-09T06:13:30;26.20;45.10
32753;DHT22;19121;52.428;10.816;2023-07-09T06:15:59;26.10;45.00
32753;DHT22;19121;52.428;10.816;2023-07-09T06:18:25;26.20;45.00
32753;DHT22;19121;52.428;10.816;2023-07-09T06:20:54;26.20;45.00
32753;DHT22;19121;52.428;10.816;2023-07-09T06:23:20;26.20;45.60
32753;DHT22;19121;52.428;10.816;2023-07-09T06:25:46;26.20;44.90
32753;DHT22;19121;52.428;10.816;2023-07-09T06:28:16;26.30;44.90
32753;DHT22;19121;52.428;10.816;2023-07-09T06:30:42;26.30;44.80
32753;DHT22;19121;52.428;10.816;2023-07-09T06:33:07;26.40;44.90
32753;DHT22;19121;52.428;10.816;2023-07-09T06:35:33;26.40;44.80
32753;DHT22;19121;52.428;10.816;2023-07-09T06:37:58;26.40;44.80
32753;DHT22;19121;52.428;10.816;2023-07-09T06:40:24;26.40;44.80
32753;DHT22;19121;52.428;10.816;2023-07-09T06:42:50;26.40;44.80
32753;DHT22;19121;52.428;10.816;2023-07-09T06:45:16;26.40;44.70
32753;DHT22;19121;52.428;10.816;2023-07-09T06:47:41;26.50;44.70
32753;DHT22;19121;52.428;10.816;2023-07-09T06:50:07;26.50;44.70
32753;DHT22;19121;52.428;10.816;2023-07-09T06:52:32;26.50;44.60
32753;DHT22;19121;52.428;10.816;2023-07-09T06:54:57;26.50;44.60
32753;DHT22;19121;52.428;10.816;2023-07-09T06:57:23;26.50;44.50
32753;DHT22;19121;52.428;10.816;2023-07-09T06:59:48;26.60;44.60
32753;DHT22;19121;52.428;10.816;2023-07-09T07:02:14;26.60;44.50
32753;DHT22;19121;52.428;10.816;2023-07-09T07:04:39;26.60;44.50
32753;DHT22;19121;52.428;10.816;2023-07-09T07:07:07;26.60;44.40
32753;DHT22;19121;52.428;10.816;2023-07-09T07:09:32;26.70;44.50
32753;DHT22;19121;52.428;10.816;2023-07-09T07:11:57;26.70;44.40
32753;DHT22;19121;52.428;10.816;2023-07-09T07:14:23;26.70;44.40
32753;DHT22;19121;52.428;10.816;2023-07-09T07:16:49;26.70;44.40
32753;DHT22;19121;52.428;10.816;2023-07-09T07:19:15;26.70;44.40
32753;DHT22;19121;52.428;10.816;2023-07-09T07:21:40;26.70;44.30
32753;DHT22;19121;52.428;10.816;2023-07-09T07:24:06;26.80;44.40
32753;DHT22;19121;52.428;10.816;2023-07-09T07:26:31;26.80;44.30
32753;DHT22;19121;52.428;10.816;2023-07-09T07:28:56;26.80;44.30
32753;DHT22;19121;52.428;10.816;2023-07-09T07:31:22;26.80;44.30
32753;DHT22;19121;52.428;10.816;2023-07-09T07:33:48;26.80;44.20
32753;DHT22;19121;52.428;10.816;2023-07-09T07:36:13;26.90;44.20
32753;DHT22;19121;52.428;10.816;2023-07-09T07:38:38;26.90;44.20
32753;DHT22;19121;52.428;10.816;2023-07-09T07:41:04;26.90;44.20
32753;DHT22;19121;52.428;10.816;2023-07-09T07:43:29;26.90;44.10
32753;DHT22;19121;52.428;10.816;2023-07-09T07:45:55;26.90;44.10
32753;DHT22;19121;52.428;10.816;2023-07-09T07:48:20;26.90;44.10
32753;DHT22;19121;52.428;10.816;2023-07-09T07:50:46;27.00;44.10
32753;DHT22;19121;52.428;10.816;2023-07-09T07:53:13;27.00;44.10
32753;DHT22;19121;52.428;10.816;2023-07-09T07:55:39;27.00;44.00
32753;DHT22;19121;52.428;10.816;2023-07-09T07:58:04;27.00;44.00
32753;DHT22;19121;52.428;10.816;2023-07-09T08:00:30;27.00;44.00
32753;DHT22;19121;52.428;10.816;2023-07-09T08:02:56;27.00;43.90
32753;DHT22;19121;52.428;10.816;2023-07-09T08:05:21;27.10;44.00
32753;DHT22;19121;52.428;10.816;2023-07-09T08:07:48;27.10;43.90
32753;DHT22;19121;52.428;10.816;2023-07-09T08:10:14;27.10;43.90
32753;DHT22;19121;52.428;10.816;2023-07-09T08:12:40;27.10;43.90
32753;DHT22;19121;52.428;10.816;2023-07-09T08:15:06;27.10;43.80
32753;DHT22;19121;52.428;10.816;2023-07-09T08:17:32;27.20;43.90
32753;DHT22;19121;52.428;10.816;2023-07-09T08:19:57;27.20;43.80
32753;DHT22;19121;52.428;10.816;2023-07-09T08:22:22;27.20;43.80
32753;DHT22;19121;52.428;10.816;2023-07-09T08:24:51;27.20;43.80
32753;DHT22;19121;52.428;10.816;2023-07-09T08:27:17;27.20;43.80
32753;DHT22;19121;52.428;10.816;2023-07-09T08:29:43;27.20;43.80
32753;DHT22;19121;52.428;10.816;2023-07-09T08:32:09;27.30;43.80
32753;DHT22;19121;52.428;10.816;2023-07-09T08:34:35;27.30;43.70
32753;DHT22;19121;52.428;10.816;2023-07-09T08:37:00;27.30;43.80
32753;DHT22;19121;52.428;10.816;2023-07-09T08:39:26;27.30;43.70
32753;DHT22;19121;52.428;10.816;2023-07-09T08:41:59;27.30;43.70
32753;DHT22;19121;52.428;10.816;2023-07-09T08:47:25;27.30;43.70
32753;DHT22;19121;52.428;10.816;2023-07-09T08:49:55;27.30;43.70
32753;DHT22;19121;52.428;10.816;2023-07-09T08:52:29;27.30;43.70
32753;DHT22;19121;52.428;10.816;2023-07-09T08:54:55;27.30;43.80
32753;DHT22;19121;52.428;10.816;2023-07-09T08:57:24;27.40;43.80
32753;DHT22;19121;52.428;10.816;2023-07-09T08:59:57;27.40;43.80
32753;DHT22;19121;52.428;10.816;2023-07-09T09:02:30;27.40;43.80
32753;DHT22;19121;52.428;10.816;2023-07-09T09:04:57;27.40;43.90
32753;DHT22;19121;52.428;10.816;2023-07-09T09:07:35;27.40;43.90
32753;DHT22;19121;52.428;10.816;2023-07-09T09:10:04;27.40;43.90
32753;DHT22;19121;52.428;10.816;2023-07-09T09:12:33;27.40;43.90
32753;DHT22;19121;52.428;10.816;2023-07-09T09:15:03;27.40;43.90
32753;DHT22;19121;52.428;10.816;2023-07-09T09:17:29;27.40;43.90
32753;DHT22;19121;52.428;10.816;2023-07-09T09:19:59;27.40;44.00
32753;DHT22;19121;52.428;10.816;2023-07-09T09:27:40;27.40;44.00
32753;DHT22;19121;52.428;10.816;2023-07-09T09:30:09;27.40;44.00
32753;DHT22;19121;52.428;10.816;2023-07-09T09:32:39;27.40;44.00
32753;DHT22;19121;52.428;10.816;2023-07-09T09:35:14;27.50;44.10
32753;DHT22;19121;52.428;10.816;2023-07-09T09:37:39;27.50;44.00
32753;DHT22;19121;52.428;10.816;2023-07-09T09:40:08;27.50;44.10
32753;DHT22;19121;52.428;10.816;2023-07-09T09:42:33;27.50;44.10
32753;DHT22;19121;52.428;10.816;2023-07-09T09:45:00;27.50;44.10
32753;DHT22;19121;52.428;10.816;2023-07-09T09:47:26;27.50;44.10
32753;DHT22;19121;52.428;10.816;2023-07-09T09:49:52;27.50;44.10
32753;DHT22;19121;52.428;10.816;2023-07-09T09:52:18;27.50;44.00
32753;DHT22;19121;52.428;10.816;2023-07-09T09:54:46;27.50;44.10
32753;DHT22;19121;52.428;10.816;2023-07-09T09:57:17;27.40;44.10
32753;DHT22;19121;52.428;10.816;2023-07-09T09:59:44;27.50;44.10
32753;DHT22;19121;52.428;10.816;2023-07-09T10:02:14;27.50;44.20
32753;DHT22;19121;52.428;10.816;2023-07-09T10:04:40;27.50;44.20
32753;DHT22;19121;52.428;10.816;2023-07-09T10:07:25;27.50;44.30
32753;DHT22;19121;52.428;10.816;2023-07-09T10:09:53;27.50;44.70
32753;DHT22;19121;52.428;10.816;2023-07-09T10:15:08;27.50;46.30
32753;DHT22;19121;52.428;10.816;2023-07-09T10:17:37;27.60;47.00
32753;DHT22;19121;52.428;10.816;2023-07-09T10:23:13;27.50;45.10
32753;DHT22;19121;52.428;10.816;2023-07-09T10:25:42;27.60;44.80
32753;DHT22;19121;52.428;10.816;2023-07-09T10:30:56;27.60;44.70
32753;DHT22;19121;52.428;10.816;2023-07-09T10:39:08;27.60;44.50
32753;DHT22;19121;52.428;10.816;2023-07-09T10:41:34;27.60;44.50
32753;DHT22;19121;52.428;10.816;2023-07-09T10:44:06;27.60;44.60
32753;DHT22;19121;52.428;10.816;2023-07-09T10:46:35;27.60;44.50
32753;DHT22;19121;52.428;10.816;2023-07-09T10:49:02;27.60;44.50
32753;DHT22;19121;52.428;10.816;2023-07-09T10:54:02;27.70;44.70
32753;DHT22;19121;52.428;10.816;2023-07-09T10:56:31;27.70;44.60
32753;DHT22;19121;52.428;10.816;2023-07-09T10:59:01;27.70;44.60
32753;DHT22;19121;52.428;10.816;2023-07-09T11:01:32;27.70;44.40
32753;DHT22;19121;52.428;10.816;2023-07-09T11:04:00;27.70;44.40
32753;DHT22;19121;52.428;10.816;2023-07-09T11:06:32;27.70;44.30
32753;DHT22;19121;52.428;10.816;2023-07-09T11:08:58;27.70;44.20
32753;DHT22;19121;52.428;10.816;2023-07-09T11:11:35;27.70;44.20
32753;DHT22;19121;52.428;10.816;2023-07-09T11:14:04;27.70;44.10
32753;DHT22;19121;52.428;10.816;2023-07-09T11:16:35;27.70;44.10
32753;DHT22;19121;52.428;10.816;2023-07-09T11:19:02;27.70;44.10
32753;DHT22;19121;52.428;10.816;2023-07-09T11:21:28;27.70;43.90
32753;DHT22;19121;52.428;10.816;2023-07-09T11:23:55;27.70;43.70
32753;DHT22;19121;52.428;10.816;2023-07-09T11:26:23;27.70;43.80
32753;DHT22;19121;52.428;10.816;2023-07-09T11:33:59;27.80;43.40
32753;DHT22;19121;52.428;10.816;2023-07-09T11:36:27;27.80;43.40
32753;DHT22;19121;52.428;10.816;2023-07-09T11:38:52;27.80;43.40
32753;DHT22;19121;52.428;10.816;2023-07-09T11:43:49;27.80;43.40
32753;DHT22;19121;52.428;10.816;2023-07-09T11:46:17;27.80;43.50
32753;DHT22;19121;52.428;10.816;2023-07-09T11:48:43;27.80;43.20
32753;DHT22;19121;52.428;10.816;2023-07-09T11:51:16;27.80;43.30
32753;DHT22;19121;52.428;10.816;2023-07-09T11:53:54;27.80;43.20
32753;DHT22;19121;52.428;10.816;2023-07-09T11:56:20;27.80;43.30
32753;DHT22;19121;52.428;10.816;2023-07-09T11:58:50;27.80;43.50
32753;DHT22;19121;52.428;10.816;2023-07-09T12:01:17;27.80;43.30
32753;DHT22;19121;52.428;10.816;2023-07-09T12:03:43;27.80;43.30
32753;DHT22;19121;52.428;10.816;2023-07-09T12:06:20;27.80;43.30
32753;DHT22;19121;52.428;10.816;2023-07-09T12:08:47;27.90;43.30
32753;DHT22;19121;52.428;10.816;2023-07-09T12:13:48;27.90;43.30
32753;DHT22;19121;52.428;10.816;2023-07-09T12:16:27;27.90;43.10
32753;DHT22;19121;52.428;10.816;2023-07-09T12:18:53;27.90;43.00
32753;DHT22;19121;52.428;10.816;2023-07-09T12:21:18;27.90;42.90
32753;DHT22;19121;52.428;10.816;2023-07-09T12:23:44;27.90;42.90
32753;DHT22;19121;52.428;10.816;2023-07-09T12:26:11;27.90;43.10
32753;DHT22;19121;52.428;10.816;2023-07-09T12:28:38;27.90;43.10
32753;DHT22;19121;52.428;10.816;2023-07-09T12:31:03;27.90;43.20
32753;DHT22;19121;52.428;10.816;2023-07-09T12:33:28;27.90;43.20
32753;DHT22;19121;52.428;10.816;2023-07-09T12:35:59;27.90;43.30
32753;DHT22;19121;52.428;10.816;2023-07-09T12:38:27;27.90;43.20
32753;DHT22;19121;52.428;10.816;2023-07-09T12:40:53;27.90;43.10
32753;DHT22;19121;52.428;10.816;2023-07-09T12:43:30;28.00;43.30
32753;DHT22;19121;52.428;10.816;2023-07-09T12:45:57;28.00;43.20
32753;DHT22;19121;52.428;10.816;2023-07-09T12:48:24;28.00;43.10
32753;DHT22;19121;52.428;10.816;2023-07-09T12:50:50;28.00;43.20
32753;DHT22;19121;52.428;10.816;2023-07-09T12:53:17;28.00;43.20
32753;DHT22;19121;52.428;10.816;2023-07-09T12:55:44;28.00;43.30
32753;DHT22;19121;52.428;10.816;2023-07-09T12:58:10;28.00;43.40
32753;DHT22;19121;52.428;10.816;2023-07-09T13:00:36;28.00;43.40
32753;DHT22;19121;52.428;10.816;2023-07-09T13:03:02;28.00;43.30
32753;DHT22;19121;52.428;10.816;2023-07-09T13:05:28;28.00;43.20
32753;DHT22;19121;52.428;10.816;2023-07-09T13:07:54;28.00;43.30
32753;DHT22;19121;52.428;10.816;2023-07-09T13:10:24;28.00;43.30
32753;DHT22;19121;52.428;10.816;2023-07-09T13:12:52;28.00;43.60
32753;DHT22;19121;52.428;10.816;2023-07-09T13:15:29;28.00;43.60
32753;DHT22;19121;52.428;10.816;2023-07-09T13:18:02;28.00;43.60
32753;DHT22;19121;52.428;10.816;2023-07-09T13:20:28;28.00;43.40
32753;DHT22;19121;52.428;10.816;2023-07-09T13:22:55;28.00;43.40
32753;DHT22;19121;52.428;10.816;2023-07-09T13:25:20;28.10;43.60
32753;DHT22;19121;52.428;10.816;2023-07-09T13:27:46;28.00;43.50
32753;DHT22;19121;52.428;10.816;2023-07-09T13:30:11;28.10;43.50
32753;DHT22;19121;52.428;10.816;2023-07-09T13:32:37;28.10;43.60
32753;DHT22;19121;52.428;10.816;2023-07-09T13:35:05;28.10;43.60
32753;DHT22;19121;52.428;10.816;2023-07-09T13:37:35;28.10;43.70
32753;DHT22;19121;52.428;10.816;2023-07-09T13:40:00;28.10;43.40
32753;DHT22;19121;52.428;10.816;2023-07-09T13:42:26;28.10;43.10
32753;DHT22;19121;52.428;10.816;2023-07-09T13:44:51;28.10;43.00
32753;DHT22;19121;52.428;10.816;2023-07-09T13:47:20;28.10;43.10
32753;DHT22;19121;52.428;10.816;2023-07-09T13:49:46;28.10;43.00
32753;DHT22;19121;52.428;10.816;2023-07-09T13:52:19;28.10;43.20
32753;DHT22;19121;52.428;10.816;2023-07-09T13:54:45;28.10;43.10
32753;DHT22;19121;52.428;10.816;2023-07-09T13:57:17;28.10;42.80
32753;DHT22;19121;52.428;10.816;2023-07-09T13:59:43;28.10;42.80
32753;DHT22;19121;52.428;10.816;2023-07-09T14:02:16;28.10;42.80
32753;DHT22;19121;52.428;10.816;2023-07-09T14:04:42;28.10;43.30
32753;DHT22;19121;52.428;10.816;2023-07-09T14:07:11;28.10;43.50
32753;DHT22;19121;52.428;10.816;2023-07-09T14:09:45;28.10;43.30
32753;DHT22;19121;52.428;10.816;2023-07-09T14:12:10;28.10;43.10
32753;DHT22;19121;52.428;10.816;2023-07-09T14:14:36;28.10;43.20
32753;DHT22;19121;52.428;10.816;2023-07-09T14:17:01;28.10;43.20
32753;DHT22;19121;52.428;10.816;2023-07-09T14:19:27;28.10;43.20
32753;DHT22;19121;52.428;10.816;2023-07-09T14:21:53;28.10;43.30
32753;DHT22;19121;52.428;10.816;2023-07-09T14:26:50;28.10;43.40
32753;DHT22;19121;52.428;10.816;2023-07-09T14:29:16;28.10;43.50
32753;DHT22;19121;52.428;10.816;2023-07-09T14:31:42;28.10;43.60
32753;DHT22;19121;52.428;10.816;2023-07-09T14:34:18;28.20;43.70
32753;DHT22;19121;52.428;10.816;2023-07-09T14:36:45;28.20;43.80
32753;DHT22;19121;52.428;10.816;2023-07-09T14:39:10;28.20;43.60
32753;DHT22;19121;52.428;10.816;2023-07-09T14:41:36;28.20;43.50
32753;DHT22;19121;52.428;10.816;2023-07-09T14:44:01;28.20;43.60
32753;DHT22;19121;52.428;10.816;2023-07-09T14:46:27;28.20;43.60
32753;DHT22;19121;52.428;10.816;2023-07-09T14:48:52;28.20;43.30
32753;DHT22;19121;52.428;10.816;2023-07-09T14:51:18;28.20;43.20
32753;DHT22;19121;52.428;10.816;2023-07-09T14:53:43;28.20;43.40
32753;DHT22;19121;52.428;10.816;2023-07-09T14:56:09;28.20;43.50
32753;DHT22;19121;52.428;10.816;2023-07-09T14:58:35;28.20;43.60
32753;DHT22;19121;52.428;10.816;2023-07-09T15:01:00;28.20;43.60
32753;DHT22;19121;52.428;10.816;2023-07-09T15:03:26;28.20;43.60
32753;DHT22;19121;52.428;10.816;2023-07-09T15:05:52;28.20;43.70
32753;DHT22;19121;52.428;10.816;2023-07-09T15:08:19;28.20;43.70
32753;DHT22;19121;52.428;10.816;2023-07-09T15:10:45;28.20;43.80
32753;DHT22;19121;52.428;10.816;2023-07-09T15:13:33;28.20;43.70
32753;DHT22;19121;52.428;10.816;2023-07-09T15:15:57;28.20;43.50
32753;DHT22;19121;52.428;10.816;2023-07-09T15:18:23;28.20;43.50
32753;DHT22;19121;52.428;10.816;2023-07-09T15:20:53;28.20;43.40
32753;DHT22;19121;52.428;10.816;2023-07-09T15:23:19;28.20;43.40
32753;DHT22;19121;52.428;10.816;2023-07-09T15:25:48;28.20;43.40
32753;DHT22;19121;52.428;10.816;2023-07-09T15:28:13;28.20;43.50
32753;DHT22;19121;52.428;10.816;2023-07-09T15:30:39;28.20;43.40
32753;DHT22;19121;52.428;10.816;2023-07-09T15:33:05;28.20;43.50
32753;DHT22;19121;52.428;10.816;2023-07-09T15:35:34;28.20;43.50
32753;DHT22;19121;52.428;10.816;2023-07-09T15:38:01;28.20;43.20
32753;DHT22;19121;52.428;10.816;2023-07-09T15:40:28;28.20;43.10
32753;DHT22;19121;52.428;10.816;2023-07-09T15:42:55;28.20;43.10
32753;DHT22;19121;52.428;10.816;2023-07-09T15:45:20;28.20;43.40
32753;DHT22;19121;52.428;10.816;2023-07-09T15:47:47;28.20;43.50
32753;DHT22;19121;52.428;10.816;2023-07-09T15:50:22;28.20;43.60
32753;DHT22;19121;52.428;10.816;2023-07-09T15:52:48;28.20;43.70